Nouasseur, Morocco
Current Conditions -  °F | °C
As of 8:00 PM on Sunday 23 Nov 2014 (Local Time) from GMMN Reporting Station
Broken Clouds Broken Clouds  
Wind Chill: 64°   Ceiling: 2600
Heat Index: 64°   Visibility: 6mi
Dew Point: 59°   Wind: 18mph
Humidity: 83%   Direction: 210°SSW
Pressure: 29.88"   Gusts: NA
Location:  33.37°N, 7.58°W
Report Text: GMMN 231900Z 21016KT 9999 SCT016TCU FEW020CB BKN026 18/15 Q1012 NOSIG
Loading
Personal Weather Stations






























Interactive Weather Map New forecast layout! Learn more

10-Day Weather Forecast

Advertisements
Track Severe Weather on mobile